Time;durP1;ratioP1;P1;durP2;ratioP2;P2;SDS_P1;SDS_P2;PMS_P1;PMS_P2;Temp;Humidity;BMP_temperature;BMP_pressure;BME280_temperature;BME280_humidity;BME280_pressure;Samples;Min_cycle;Max_cycle;Signal;HPM_P1;HPM_P2
2022/01/27 00:05:46;;;;;;;33.35;16.15;;;;;;;2.45;83.23;99818.59;4882840;29;20065;-90
2022/01/27 00:08:16;;;;;;;26.50;14.45;;;;;;;2.42;83.19;99815.50;4880405;29;20577;-91
2022/01/27 00:13:16;;;;;;;26.95;14.02;;;;;;;2.39;82.87;99798.22;4863848;29;20502;-91
2022/01/27 00:15:45;;;;;;;25.35;14.15;;;;;;;2.44;82.74;99801.16;4877070;29;20084;-91
2022/01/27 00:18:18;;;;;;;29.85;14.35;;;;;;;2.51;83.25;99807.38;4864039;29;20064;-91
2022/01/27 00:20:48;;;;;;;29.88;14.43;;;;;;;2.58;82.86;99818.84;4894469;29;20056;-90
2022/01/27 00:23:14;;;;;;;28.88;14.18;;;;;;;2.51;82.81;99809.19;4894635;29;20029;-90
2022/01/27 00:25:42;;;;;;;22.00;12.88;;;;;;;2.55;82.73;99808.69;4893193;29;20358;-91
2022/01/27 00:28:08;;;;;;;26.92;12.20;;;;;;;2.54;82.67;99806.19;4861405;29;20059;-90
2022/01/27 00:30:35;;;;;;;24.02;12.73;;;;;;;2.59;82.81;99804.72;4862902;29;20033;-90
2022/01/27 00:33:01;;;;;;;28.40;13.15;;;;;;;2.59;82.50;99801.25;4877708;29;20031;-90
2022/01/27 00:35:26;;;;;;;25.38;13.02;;;;;;;2.20;82.89;99735.47;4878950;29;20024;-91
2022/01/27 00:37:51;;;;;;;25.27;12.65;;;;;;;2.36;82.70;99755.63;4879309;29;20037;-90
2022/01/27 00:40:17;;;;;;;26.88;13.88;;;;;;;2.48;82.88;99770.84;4857891;29;20029;-90
2022/01/27 00:42:42;;;;;;;22.77;12.30;;;;;;;2.32;82.43;99741.97;4869134;29;20040;-89
2022/01/27 00:45:09;;;;;;;27.80;13.98;;;;;;;2.49;82.71;99771.69;4880972;29;20096;-90
2022/01/27 00:47:35;;;;;;;28.80;15.77;;;;;;;2.20;82.53;99719.66;4878377;29;20100;-90
2022/01/27 00:50:00;;;;;;;30.77;15.82;;;;;;;2.36;82.80;99737.19;4852950;29;20418;-90
2022/01/27 00:52:37;;;;;;;30.20;15.20;;;;;;;2.48;82.55;99762.94;4862864;29;20056;-90
2022/01/27 00:55:04;;;;;;;29.85;15.43;;;;;;;2.34;83.08;99734.69;4856307;29;20085;-90
2022/01/27 01:00:21;;;;;;;29.02;15.80;;;;;;;2.46;82.45;99740.41;4891731;29;20037;-90
2022/01/27 01:02:53;;;;;;;32.17;16.60;;;;;;;2.45;82.90;99739.56;4877902;29;20039;-90
2022/01/27 01:16:07;;;;;;;32.78;15.98;;;;;;;2.28;82.83;99712.53;4879839;29;20088;-90
2022/01/27 01:18:50;;;;;;;28.58;14.15;;;;;;;2.32;82.29;99723.53;4858156;29;20029;-90
2022/01/27 01:29:51;;;;;;;29.67;14.95;;;;;;;2.42;82.55;99731.22;4899098;29;20474;-90
2022/01/27 01:34:44;;;;;;;28.45;15.23;;;;;;;2.44;82.60;99724.78;4869928;29;20481;-91
2022/01/27 01:37:09;;;;;;;27.60;14.35;;;;;;;2.22;82.55;99680.78;4862147;29;20016;-89
2022/01/27 01:39:36;;;;;;;29.00;13.73;;;;;;;2.46;82.67;99704.34;4905756;29;20045;-91
2022/01/27 01:42:05;;;;;;;27.95;15.27;;;;;;;2.50;82.74;99705.63;4884703;29;20060;-91
2022/01/27 01:44:30;;;;;;;26.23;13.07;;;;;;;2.43;82.53;99701.22;4893190;29;20096;-88
2022/01/27 01:47:00;;;;;;;30.38;14.00;;;;;;;2.33;82.42;99676.94;4891880;29;20020;-88
2022/01/27 01:49:26;;;;;;;25.95;13.25;;;;;;;2.38;82.41;99682.50;4871586;29;20037;-90
2022/01/27 01:51:57;;;;;;;28.65;14.23;;;;;;;2.48;82.45;99694.44;4865478;29;20037;-89
2022/01/27 01:54:23;;;;;;;25.40;13.60;;;;;;;2.45;82.26;99688.69;4917931;29;20009;-88
2022/01/27 01:56:49;;;;;;;30.90;15.23;;;;;;;2.02;82.62;99624.31;4892637;29;20051;-91
2022/01/27 01:59:14;;;;;;;27.80;14.85;;;;;;;2.27;82.42;99663.47;4855868;29;20418;-90
2022/01/27 02:01:41;;;;;;;29.88;15.00;;;;;;;2.36;82.58;99676.59;4881445;29;20032;-90
2022/01/27 02:04:09;;;;;;;25.23;13.30;;;;;;;2.13;82.30;99644.97;4844223;29;20028;-90
2022/01/27 02:06:47;;;;;;;27.92;14.73;;;;;;;2.49;82.44;99693.44;4897257;29;20123;-91
2022/01/27 02:09:22;;;;;;;26.10;13.80;;;;;;;2.44;82.35;99697.59;4881154;29;20483;-91
2022/01/27 02:20:00;;;;;;;28.13;13.95;;;;;;;2.41;82.42;99680.31;4899000;29;20044;-91
2022/01/27 02:22:26;;;;;;;28.92;14.32;;;;;;;2.42;82.12;99666.19;4881076;29;20024;-91
2022/01/27 02:24:52;;;;;;;27.75;15.27;;;;;;;2.45;82.74;99668.44;4881184;29;20107;-90
2022/01/27 02:27:19;;;;;;;26.73;14.23;;;;;;;2.49;82.34;99666.28;4881158;29;20037;-91
2022/01/27 02:29:45;;;;;;;28.77;13.70;;;;;;;2.30;82.55;99635.97;4883771;29;20666;-91
2022/01/27 02:32:13;;;;;;;25.73;13.85;;;;;;;2.41;82.04;99650.53;4863058;29;20033;-91
2022/01/27 02:34:39;;;;;;;28.00;13.95;;;;;;;2.52;82.20;99656.19;4872949;29;20037;-91
2022/01/27 02:37:05;;;;;;;24.23;13.15;;;;;;;2.45;82.37;99652.63;4878092;29;20032;-90
2022/01/27 02:39:30;;;;;;;22.50;11.90;;;;;;;2.50;82.12;99658.19;4880522;29;20466;-90
2022/01/27 02:42:01;;;;;;;25.10;14.07;;;;;;;2.45;81.79;99651.81;4864827;29;20044;-91
2022/01/27 02:44:37;;;;;;;26.15;13.55;;;;;;;2.34;81.95;99629.34;4879674;29;20052;-91
2022/01/27 02:47:03;;;;;;;20.92;11.68;;;;;;;2.40;81.89;99636.56;4876035;29;20398;-91
2022/01/27 02:49:28;;;;;;;25.33;12.98;;;;;;;2.48;81.88;99644.38;4850078;29;20044;-91
2022/01/27 02:51:54;;;;;;;24.02;12.10;;;;;;;2.41;81.31;99646.09;4879445;29;20033;-90
2022/01/27 02:54:19;;;;;;;21.80;12.38;;;;;;;2.18;81.70;99598.69;4866003;29;20046;-91
2022/01/27 02:56:47;;;;;;;22.73;12.02;;;;;;;2.00;81.53;99576.28;4861102;29;20032;-90
2022/01/27 02:59:16;;;;;;;20.23;11.95;;;;;;;2.24;81.50;99608.53;4864923;29;20035;-90
2022/01/27 03:01:47;;;;;;;23.05;12.77;;;;;;;2.25;81.32;99618.06;4861928;29;20040;-90
2022/01/27 03:04:13;;;;;;;24.25;11.27;;;;;;;2.27;81.53;99604.72;4847756;29;20082;-91
2022/01/27 03:06:38;;;;;;;20.48;10.73;;;;;;;2.45;81.68;99643.91;4878698;29;20032;-89
2022/01/27 03:09:04;;;;;;;22.10;12.35;;;;;;;2.46;81.69;99627.94;4865181;29;20256;-90
2022/01/27 03:11:48;;;;;;;24.98;13.25;;;;;;;2.32;81.41;99605.00;4880245;29;20088;-91
2022/01/27 03:14:16;;;;;;;23.08;11.25;;;;;;;2.46;81.53;99630.56;4843173;29;20048;-91
2022/01/27 03:16:42;;;;;;;20.55;10.50;;;;;;;2.31;81.43;99606.00;4855813;29;20036;-90
2022/01/27 03:19:08;;;;;;;17.77;9.80;;;;;;;2.38;81.45;99622.72;4878656;29;20024;-91
2022/01/27 03:21:34;;;;;;;19.98;11.18;;;;;;;2.34;81.84;99594.31;4861860;29;20067;-90
2022/01/27 03:23:59;;;;;;;19.20;10.85;;;;;;;2.24;81.83;99576.09;4863590;29;20040;-90
2022/01/27 03:26:26;;;;;;;17.50;10.55;;;;;;;2.29;81.05;99582.47;4877815;29;20389;-90
2022/01/27 03:28:51;;;;;;;19.75;9.65;;;;;;;2.17;81.14;99548.84;4856616;29;20033;-90
2022/01/27 03:31:16;;;;;;;19.70;10.50;;;;;;;2.37;81.21;99563.16;4860776;29;20096;-91
2022/01/27 03:33:43;;;;;;;16.45;10.10;;;;;;;2.44;80.76;99550.09;4862696;29;20398;-91
2022/01/27 03:36:09;;;;;;;18.27;11.05;;;;;;;2.29;80.42;99502.66;4879910;29;20024;-90
2022/01/27 03:38:34;;;;;;;24.65;11.40;;;;;;;2.28;80.79;99479.94;4878750;29;20031;-91
2022/01/27 03:41:05;;;;;;;19.60;11.00;;;;;;;2.41;80.86;99501.19;4893465;29;20469;-90
2022/01/27 03:43:30;;;;;;;23.83;12.60;;;;;;;2.34;81.09;99555.59;4877635;29;20036;-91
2022/01/27 03:45:56;;;;;;;23.23;13.75;;;;;;;2.20;80.81;99540.59;4879482;29;20025;-90
2022/01/27 03:48:21;;;;;;;21.75;12.10;;;;;;;2.22;81.04;99543.88;4861735;29;20033;-90
2022/01/27 03:50:46;;;;;;;21.45;12.52;;;;;;;2.33;81.32;99561.03;4915017;29;20052;-89
2022/01/27 03:53:14;;;;;;;20.35;10.52;;;;;;;2.30;80.99;99556.94;4857816;29;20481;-90
2022/01/27 03:55:39;;;;;;;23.15;12.30;;;;;;;2.36;81.32;99572.03;4868188;29;20162;-90
2022/01/27 03:58:04;;;;;;;26.67;12.85;;;;;;;2.42;80.96;99573.97;4915269;29;20044;-90
2022/01/27 04:00:30;;;;;;;23.00;12.73;;;;;;;2.22;81.15;99552.59;4878390;29;20047;-90
2022/01/27 04:05:25;;;;;;;27.52;12.90;;;;;;;2.37;80.95;99600.03;4891546;29;20052;-90
2022/01/27 04:07:56;;;;;;;26.35;12.77;;;;;;;2.33;81.00;99582.13;4882344;29;20037;-89
2022/01/27 04:10:22;;;;;;;21.80;12.93;;;;;;;2.43;80.39;99615.13;4877955;29;20578;-90
2022/01/27 04:12:47;;;;;;;21.70;11.07;;;;;;;2.31;80.73;99599.91;4879045;29;20123;-90
2022/01/27 04:15:12;;;;;;;23.52;12.32;;;;;;;2.40;80.74;99604.94;4846262;29;20063;-90
2022/01/27 04:17:38;;;;;;;24.95;11.57;;;;;;;2.31;81.12;99582.31;4880078;29;20438;-90
2022/01/27 04:20:03;;;;;;;21.40;11.82;;;;;;;2.09;80.74;99544.47;4878612;29;20084;-89
2022/01/27 04:22:29;;;;;;;26.50;12.48;;;;;;;2.34;81.30;99584.56;4882292;29;20024;-89
2022/01/27 04:24:54;;;;;;;20.92;11.85;;;;;;;2.41;81.06;99600.47;4858969;29;20041;-89
2022/01/27 04:27:23;;;;;;;20.95;12.38;;;;;;;2.32;81.06;99583.09;4860657;29;20067;-90
2022/01/27 04:29:48;;;;;;;25.05;12.43;;;;;;;2.48;81.13;99606.69;4844847;29;20118;-90
2022/01/27 04:32:20;;;;;;;22.85;12.20;;;;;;;2.46;80.64;99577.88;4876876;29;20044;-89
2022/01/27 04:34:46;;;;;;;23.42;12.55;;;;;;;1.87;80.95;99452.34;4879570;29;20064;-89
2022/01/27 04:37:13;;;;;;;24.42;12.10;;;;;;;2.37;80.30;99547.34;4879436;29;20127;-90
2022/01/27 04:39:49;;;;;;;24.52;12.35;;;;;;;2.34;80.88;99546.91;4860168;29;20028;-90
2022/01/27 04:42:26;;;;;;;28.23;14.38;;;;;;;2.42;80.86;99552.06;4870592;29;20064;-90
2022/01/27 04:44:58;;;;;;;29.15;14.90;;;;;;;2.44;80.61;99550.91;4868839;29;20477;-89
2022/01/27 04:47:31;;;;;;;27.15;14.52;;;;;;;2.49;80.65;99563.53;4853520;29;20401;-90
2022/01/27 04:49:57;;;;;;;29.98;14.40;;;;;;;2.41;80.81;99551.25;4868777;29;20040;-90
2022/01/27 04:52:24;;;;;;;28.73;14.63;;;;;;;2.12;80.26;99490.63;4871185;29;20056;-89
2022/01/27 04:54:58;;;;;;;31.63;15.25;;;;;;;2.49;80.44;99551.16;4882695;29;20032;-90
2022/01/27 04:57:25;;;;;;;27.60;14.27;;;;;;;2.36;80.99;99529.09;4848926;29;20371;-89
2022/01/27 04:59:51;;;;;;;29.60;14.27;;;;;;;2.27;80.78;99507.28;4863336;29;20044;-89
2022/01/27 05:02:26;;;;;;;29.95;15.18;;;;;;;2.38;80.83;99532.38;4867881;29;20390;-89
2022/01/27 05:04:52;;;;;;;30.08;14.80;;;;;;;2.25;80.78;99507.44;4915768;29;20115;-90
2022/01/27 05:07:17;;;;;;;24.13;13.38;;;;;;;1.81;80.38;99430.22;4884780;29;20482;-89
2022/01/27 05:09:51;;;;;;;31.27;16.00;;;;;;;2.11;80.27;99484.56;4866982;29;20181;-89
2022/01/27 05:15:03;;;;;;;33.33;16.55;;;;;;;2.39;80.01;99532.19;4882053;29;20036;-90
2022/01/27 05:17:28;;;;;;;35.00;17.90;;;;;;;2.36;80.47;99544.91;4928047;29;20032;-90
2022/01/27 05:19:54;;;;;;;30.38;16.42;;;;;;;2.31;79.94;99526.16;4873793;29;20032;-89
2022/01/27 05:22:22;;;;;;;34.80;18.25;;;;;;;2.04;80.47;99474.91;4887647;29;20029;-89
2022/01/27 05:24:57;;;;;;;34.58;18.83;;;;;;;2.05;80.27;99487.09;4875782;29;20389;-90
2022/01/27 05:27:23;;;;;;;31.42;17.63;;;;;;;2.09;80.46;99491.81;4883542;29;20119;-88
2022/01/27 05:29:48;;;;;;;35.15;18.50;;;;;;;2.09;80.20;99470.75;4883926;29;20068;-89
2022/01/27 05:32:25;;;;;;;36.08;17.55;;;;;;;2.18;80.33;99474.13;4883376;29;20433;-90
2022/01/27 05:34:50;;;;;;;36.33;19.48;;;;;;;2.44;80.30;99523.75;4885557;29;20485;-87
2022/01/27 05:37:20;;;;;;;33.17;17.75;;;;;;;2.00;80.59;99442.03;4864921;29;20051;-87
2022/01/27 05:39:45;;;;;;;37.63;18.52;;;;;;;2.22;80.59;99485.94;4881229;29;20036;-89
2022/01/27 05:42:11;;;;;;;33.78;17.67;;;;;;;2.36;80.26;99503.56;4882206;29;20028;-90
2022/01/27 05:44:36;;;;;;;33.63;17.92;;;;;;;2.44;80.11;99521.94;4882574;29;20084;-90
2022/01/27 05:47:03;;;;;;;38.70;18.75;;;;;;;2.45;79.76;99534.09;4883459;29;20124;-90
2022/01/27 05:49:28;;;;;;;34.63;19.05;;;;;;;2.41;80.75;99498.56;4863998;29;20029;-90
2022/01/27 05:52:22;;;;;;;38.53;21.58;;;;;;;2.20;80.12;99457.16;4883331;29;20036;-91
2022/01/27 05:54:47;;;;;;;36.17;19.30;;;;;;;2.18;80.05;99456.50;4876621;29;20454;-89
2022/01/27 05:57:13;;;;;;;41.88;19.92;;;;;;;2.33;80.04;99476.75;4884007;29;20029;-89
2022/01/27 05:59:40;;;;;;;39.28;20.02;;;;;;;2.01;79.86;99428.69;4884201;29;20029;-89
2022/01/27 06:02:05;;;;;;;39.60;21.27;;;;;;;2.09;80.13;99446.22;4884902;29;20084;-89
2022/01/27 06:04:31;;;;;;;37.90;19.33;;;;;;;2.50;80.34;99518.56;4919011;29;20021;-89
2022/01/27 06:06:56;;;;;;;44.90;21.25;;;;;;;2.49;80.31;99503.75;4890664;29;20048;-88
2022/01/27 06:09:22;;;;;;;39.63;20.98;;;;;;;2.12;80.47;99443.22;4887341;29;20035;-89
2022/01/27 06:11:58;;;;;;;42.60;20.17;;;;;;;2.36;80.01;99471.94;4899340;29;20053;-89
2022/01/27 06:14:23;;;;;;;34.47;19.90;;;;;;;2.06;80.27;99431.59;4893786;29;20037;-89
2022/01/27 06:16:48;;;;;;;43.88;20.80;;;;;;;1.81;80.14;99384.66;4886179;29;20421;-89
2022/01/27 06:19:14;;;;;;;40.15;21.10;;;;;;;1.80;80.32;99362.78;4898063;29;20020;-90
2022/01/27 06:21:42;;;;;;;39.35;19.85;;;;;;;2.11;80.02;99410.00;4894729;29;20100;-90
2022/01/27 06:24:09;;;;;;;44.10;22.40;;;;;;;2.33;79.46;99450.44;4865497;29;20052;-90
2022/01/27 06:26:34;;;;;;;43.45;20.83;;;;;;;1.74;79.61;99346.91;4864861;29;20061;-89
2022/01/27 06:29:00;;;;;;;36.35;20.13;;;;;;;2.38;80.21;99446.25;4881248;29;20067;-90
2022/01/27 06:31:25;;;;;;;44.70;22.15;;;;;;;2.35;79.78;99437.91;4883191;29;20028;-89
2022/01/27 06:33:52;;;;;;;37.58;20.15;;;;;;;1.85;79.40;99349.09;4883572;29;20100;-89
2022/01/27 06:36:18;;;;;;;44.15;21.73;;;;;;;2.49;79.81;99445.78;4883678;29;20264;-90
2022/01/27 06:38:44;;;;;;;40.45;21.35;;;;;;;2.09;80.15;99368.09;4882985;29;20060;-90
2022/01/27 06:41:10;;;;;;;45.90;21.25;;;;;;;2.47;79.52;99447.00;4883269;29;20032;-89
2022/01/27 06:43:35;;;;;;;38.45;19.35;;;;;;;2.28;79.79;99393.03;4882692;29;20035;-89
2022/01/27 06:46:02;;;;;;;43.08;21.95;;;;;;;1.92;79.48;99334.22;4883154;29;20033;-89
2022/01/27 06:48:28;;;;;;;41.45;23.00;;;;;;;2.31;79.30;99382.16;4880342;29;20474;-89
2022/01/27 06:50:55;;;;;;;43.50;22.80;;;;;;;2.28;79.00;99379.88;4882234;29;20036;-89
2022/01/27 06:53:21;;;;;;;51.72;25.75;;;;;;;2.44;79.04;99397.28;4889749;29;20065;-89
2022/01/27 06:55:47;;;;;;;39.17;21.65;;;;;;;1.85;79.12;99312.25;4883046;29;20126;-89
2022/01/27 06:58:13;;;;;;;45.35;20.95;;;;;;;2.04;79.63;99351.19;4879564;29;20097;-89
2022/01/27 07:00:38;;;;;;;42.25;22.08;;;;;;;2.21;79.32;99378.94;4879352;29;20041;-89
2022/01/27 07:03:04;;;;;;;45.58;22.83;;;;;;;2.28;79.02;99403.56;4881865;29;20028;-89
2022/01/27 07:05:32;;;;;;;46.00;23.33;;;;;;;2.28;79.87;99403.56;4874448;29;20094;-88
2022/01/27 07:07:58;;;;;;;50.22;23.60;;;;;;;1.84;79.19;99336.91;4865430;29;20036;-89
2022/01/27 07:10:24;;;;;;;42.67;21.63;;;;;;;1.86;79.35;99319.13;4873248;29;20028;-89
2022/01/27 07:12:49;;;;;;;45.35;22.55;;;;;;;1.92;79.30;99331.59;4882608;29;20036;-89
2022/01/27 07:15:20;;;;;;;40.60;21.45;;;;;;;2.40;79.02;99399.50;4867571;29;20037;-89
2022/01/27 07:17:52;;;;;;;44.28;21.55;;;;;;;1.56;78.85;99251.72;4882328;29;20032;-90
2022/01/27 07:20:18;;;;;;;42.03;21.00;;;;;;;2.04;78.65;99348.53;4876058;29;20036;-89
2022/01/27 07:22:45;;;;;;;42.00;21.25;;;;;;;1.86;78.86;99300.69;4882008;29;20143;-91
2022/01/27 07:25:26;;;;;;;40.92;19.75;;;;;;;1.88;79.29;99293.47;4882403;29;20036;-92
2022/01/27 07:27:57;;;;;;;43.17;20.92;;;;;;;1.59;79.12;99251.38;4891908;29;20486;-91
2022/01/27 07:30:22;;;;;;;40.28;20.80;;;;;;;1.80;78.88;99285.66;4891985;29;20470;-90
2022/01/27 07:32:48;;;;;;;45.83;22.08;;;;;;;1.91;78.87;99319.41;4881800;29;20085;-90
2022/01/27 07:35:13;;;;;;;42.55;20.23;;;;;;;2.18;78.97;99369.59;4870109;29;20024;-89
2022/01/27 07:37:41;;;;;;;43.70;20.20;;;;;;;2.03;79.10;99331.94;4868691;29;20489;-89
2022/01/27 07:40:07;;;;;;;46.13;21.88;;;;;;;2.00;79.13;99342.00;4881444;29;20045;-89
2022/01/27 07:42:32;;;;;;;46.10;23.15;;;;;;;2.08;78.84;99352.44;4864785;29;20119;-89
2022/01/27 07:44:58;;;;;;;45.03;20.80;;;;;;;2.00;78.93;99328.84;4865176;29;20052;-89
2022/01/27 07:47:23;;;;;;;49.95;20.35;;;;;;;2.03;78.77;99329.28;4897771;29;20045;-89
2022/01/27 07:49:48;;;;;;;46.08;23.20;;;;;;;2.04;78.94;99330.13;4867586;29;20040;-88
2022/01/27 07:52:15;;;;;;;43.88;21.77;;;;;;;1.93;79.01;99302.44;4872186;29;20128;-89
2022/01/27 07:54:40;;;;;;;44.17;21.23;;;;;;;1.98;79.01;99301.91;4869324;29;20088;-89
2022/01/27 07:57:05;;;;;;;46.47;23.50;;;;;;;2.09;79.19;99307.53;4850783;29;20115;-88
2022/01/27 07:59:32;;;;;;;45.10;23.08;;;;;;;2.13;79.01;99302.69;4865101;29;20040;-88
2022/01/27 08:01:58;;;;;;;44.60;21.70;;;;;;;2.03;79.05;99286.38;4880826;29;20097;-87
2022/01/27 08:04:24;;;;;;;40.97;20.20;;;;;;;1.83;79.55;99251.09;4889082;29;20062;-88
2022/01/27 08:06:49;;;;;;;39.78;20.73;;;;;;;2.17;79.49;99310.06;4881495;29;20076;-87
2022/01/27 08:09:15;;;;;;;46.45;21.90;;;;;;;2.25;79.20;99322.28;4851101;29;20032;-88
2022/01/27 08:11:40;;;;;;;47.92;20.98;;;;;;;2.13;78.92;99297.44;4863265;29;20037;-87
2022/01/27 08:14:05;;;;;;;43.88;20.05;;;;;;;2.03;78.98;99275.84;4881294;29;20363;-88
2022/01/27 08:16:30;;;;;;;44.60;20.13;;;;;;;2.15;79.00;99298.88;4884023;29;20037;-87
2022/01/27 08:18:56;;;;;;;43.50;21.85;;;;;;;2.09;79.07;99278.56;4887134;29;20028;-88
2022/01/27 08:21:21;;;;;;;48.00;21.25;;;;;;;1.92;79.09;99252.63;4893873;29;20029;-90
2022/01/27 08:23:47;;;;;;;41.45;19.88;;;;;;;2.00;79.03;99261.25;4887400;29;20557;-89
2022/01/27 08:26:24;;;;;;;44.28;20.15;;;;;;;1.88;78.82;99233.72;4895406;28;20023;-90
2022/01/27 08:30:03;;;;;;;44.17;20.40;;;;;;;2.02;78.56;99268.94;4908553;29;20037;-90
2022/01/27 08:32:01;;;;;;;42.63;19.95;;;;;;;1.85;79.05;99242.00;4880608;29;20036;-89
2022/01/27 08:34:32;;;;;;;40.22;20.05;;;;;;;1.93;79.10;99244.53;4880059;29;20037;-89
2022/01/27 08:36:59;;;;;;;43.95;19.35;;;;;;;2.05;79.03;99258.06;4918097;29;20029;-89
2022/01/27 08:39:25;;;;;;;46.47;20.42;;;;;;;2.28;79.42;99283.25;4884941;29;20024;-90
2022/01/27 08:42:40;;;;;;;46.05;21.08;;;;;;;2.33;79.19;99271.34;4884870;29;20036;-89
2022/01/27 08:45:11;;;;;;;41.08;19.23;;;;;;;1.89;78.93;99197.72;4892913;29;20090;-90
2022/01/27 08:47:36;;;;;;;43.75;20.23;;;;;;;2.04;79.13;99241.44;4885005;29;20112;-89
2022/01/27 08:50:03;;;;;;;39.17;19.70;;;;;;;2.23;79.54;99271.63;4884562;29;20060;-90
2022/01/27 08:52:28;;;;;;;45.05;20.98;;;;;;;2.39;79.04;99297.75;4883156;29;20040;-90
2022/01/27 08:54:54;;;;;;;38.60;20.25;;;;;;;2.19;79.38;99273.81;4884754;29;20470;-90
2022/01/27 08:57:19;;;;;;;40.83;18.15;;;;;;;2.12;79.70;99249.22;4851133;29;20029;-90
2022/01/27 08:59:46;;;;;;;38.40;18.40;;;;;;;1.92;79.55;99210.53;4853347;29;20092;-90
2022/01/27 09:02:12;;;;;;;43.70;20.15;;;;;;;2.43;79.59;99296.38;4884656;29;20047;-91
2022/01/27 09:04:39;;;;;;;39.45;19.48;;;;;;;2.08;79.38;99240.06;4885009;29;20650;-90
2022/01/27 09:07:15;;;;;;;42.85;20.83;;;;;;;1.95;79.42;99202.25;4885686;29;20029;-90
2022/01/27 09:09:40;;;;;;;40.47;18.50;;;;;;;1.82;79.18;99178.41;4884237;29;20024;-89
2022/01/27 09:12:06;;;;;;;40.65;20.45;;;;;;;1.82;79.95;99187.09;4884853;29;20028;-90
2022/01/27 09:14:32;;;;;;;47.78;21.80;;;;;;;1.95;79.96;99208.31;4884466;29;20119;-90
2022/01/27 09:16:58;;;;;;;44.47;20.65;;;;;;;2.09;79.90;99231.19;4884803;29;20087;-90
2022/01/27 09:19:25;;;;;;;41.67;18.83;;;;;;;2.45;79.95;99286.47;4885035;29;20488;-90
2022/01/27 09:21:53;;;;;;;46.75;21.88;;;;;;;2.25;80.41;99253.81;4883602;29;20028;-90
2022/01/27 09:24:26;;;;;;;44.95;21.02;;;;;;;2.36;80.34;99269.13;4878982;29;20443;-90
2022/01/27 09:26:59;;;;;;;44.40;18.92;;;;;;;2.23;80.43;99253.19;4884548;29;20035;-90
2022/01/27 09:29:25;;;;;;;47.13;22.42;;;;;;;2.41;80.58;99268.59;4876728;29;20024;-90
2022/01/27 09:31:51;;;;;;;48.90;21.30;;;;;;;2.12;80.50;99225.53;4879378;29;20138;-89
2022/01/27 09:34:18;;;;;;;46.60;20.02;;;;;;;2.51;80.86;99283.09;4884556;29;20068;-90
2022/01/27 09:36:46;;;;;;;46.95;21.02;;;;;;;2.49;81.17;99276.41;4885039;29;20025;-90
2022/01/27 09:39:12;;;;;;;43.22;20.52;;;;;;;2.35;81.36;99253.53;4895322;29;20397;-90
2022/01/27 09:41:40;;;;;;;39.22;19.65;;;;;;;2.24;81.37;99239.84;4868219;29;20132;-90
2022/01/27 09:44:09;;;;;;;49.13;21.42;;;;;;;2.51;81.24;99267.28;4850809;29;20139;-90
2022/01/27 09:46:35;;;;;;;44.20;21.48;;;;;;;1.93;81.27;99175.28;4866734;29;20457;-90
2022/01/27 09:49:12;;;;;;;46.35;20.70;;;;;;;2.13;81.65;99207.91;4886129;29;20037;-90
2022/01/27 09:51:40;;;;;;;42.38;20.42;;;;;;;2.60;81.85;99284.59;4883393;29;20021;-91
2022/01/27 09:54:07;;;;;;;37.95;18.83;;;;;;;2.28;81.63;99227.94;4889902;29;20063;-91
2022/01/27 09:56:34;;;;;;;39.08;20.73;;;;;;;2.06;81.48;99170.16;4900174;29;20020;-92
2022/01/27 09:59:06;;;;;;;35.45;17.98;;;;;;;2.64;81.80;99267.44;4884891;29;20035;-93
2022/01/27 10:01:31;;;;;;;46.47;20.40;;;;;;;2.23;82.72;99193.44;4883328;29;20123;-93
2022/01/27 10:04:02;;;;;;;41.38;19.83;;;;;;;2.36;82.70;99213.03;4880573;29;20116;-92
2022/01/27 10:06:31;;;;;;;38.05;19.60;;;;;;;2.23;82.64;99182.91;4891270;29;20050;-92
2022/01/27 10:09:14;;;;;;;41.42;19.25;;;;;;;2.27;82.73;99186.00;4883928;29;20084;-90
2022/01/27 10:11:41;;;;;;;45.25;19.58;;;;;;;1.93;83.29;99162.94;4890364;29;20025;-93
2022/01/27 10:14:39;;;;;;;34.63;17.98;;;;;;;2.63;83.29;99244.72;4880081;29;20111;-93
2022/01/27 10:17:14;;;;;;;39.38;18.33;;;;;;;2.38;83.19;99213.66;4893550;29;20031;-92
2022/01/27 10:19:39;;;;;;;38.05;17.67;;;;;;;2.37;83.75;99197.03;4886248;29;20037;-92
2022/01/27 10:22:10;;;;;;;39.45;18.30;;;;;;;2.62;83.70;99231.75;4882007;29;20031;-92
2022/01/27 10:24:36;;;;;;;37.33;17.77;;;;;;;2.57;83.89;99228.84;4883183;29;20039;-92
2022/01/27 10:27:24;;;;;;;41.42;17.80;;;;;;;2.60;83.82;99226.63;4881913;29;20040;-92
2022/01/27 10:32:46;;;;;;;41.33;18.05;;;;;;;2.37;84.14;99188.31;4882180;29;20075;-88
2022/01/27 10:35:15;;;;;;;36.20;16.98;;;;;;;2.26;84.28;99171.19;4903932;29;20039;-90
2022/01/27 10:38:02;;;;;;;34.92;16.77;;;;;;;2.53;84.43;99217.88;4882814;29;20028;-90
2022/01/27 10:40:34;;;;;;;34.50;16.80;;;;;;;2.23;84.43;99161.84;4906258;29;20024;-89
2022/01/27 10:43:22;;;;;;;37.72;18.30;;;;;;;2.67;84.63;99214.34;4920149;29;20021;-89
2022/01/27 10:46:23;;;;;;;31.88;16.15;;;;;;;2.40;84.38;99170.34;4884946;29;20036;-92
2022/01/27 10:49:00;;;;;;;38.03;17.48;;;;;;;2.27;84.78;99146.50;4892519;29;20115;-88
2022/01/27 10:51:29;;;;;;;38.88;18.40;;;;;;;2.62;84.73;99206.19;4892959;29;20439;-92
2022/01/27 10:54:08;;;;;;;39.13;17.67;;;;;;;2.60;84.78;99202.13;4877757;29;20048;-92
2022/01/27 10:56:42;;;;;;;36.15;17.98;;;;;;;2.74;84.76;99217.03;4883803;29;20024;-88
2022/01/27 10:59:19;;;;;;;38.33;18.45;;;;;;;2.77;84.76;99221.94;5092302;27;20395;-85
2022/01/27 11:01:44;;;;;;;38.25;17.70;;;;;;;2.77;84.69;99211.41;5039944;28;20045;-85
2022/01/27 11:04:12;;;;;;;35.70;18.50;;;;;;;2.78;84.48;99213.03;5038858;28;20037;-85
2022/01/27 11:06:52;;;;;;;35.55;17.88;;;;;;;2.78;85.00;99198.03;5028358;28;20060;-85
2022/01/27 11:09:20;;;;;;;35.28;18.58;;;;;;;2.79;84.78;99206.75;5037643;28;20044;-86
2022/01/27 11:11:48;;;;;;;42.08;19.35;;;;;;;2.79;85.20;99197.03;5033017;28;20033;-86
2022/01/27 11:14:14;;;;;;;38.15;18.02;;;;;;;2.83;85.14;99202.72;5059340;28;20075;-86
2022/01/27 11:16:43;;;;;;;35.85;17.80;;;;;;;2.85;85.44;99216.53;5052052;28;20025;-85
2022/01/27 11:19:39;;;;;;;44.53;19.55;;;;;;;2.85;85.47;99198.91;5035031;28;20078;-85
2022/01/27 11:22:39;;;;;;;38.92;19.33;;;;;;;2.87;85.61;99210.06;5041193;28;20521;-86
2022/01/27 11:27:47;;;;;;;34.75;18.77;;;;;;;2.83;85.90;99179.84;5041317;28;20369;-86
2022/01/27 11:30:51;;;;;;;45.08;19.60;;;;;;;2.88;85.80;99192.44;5022665;28;20038;-86
2022/01/27 11:33:18;;;;;;;36.33;17.35;;;;;;;2.81;85.67;99192.38;5043828;28;20032;-85
2022/01/27 11:35:43;;;;;;;43.53;21.25;;;;;;;2.91;85.88;99189.41;5030186;28;20063;-86
2022/01/27 11:38:24;;;;;;;32.45;17.08;;;;;;;2.90;85.91;99195.69;5047434;28;20025;-88
2022/01/27 11:40:50;;;;;;;36.65;17.48;;;;;;;2.79;85.87;99169.84;5046105;28;20053;-88
2022/01/27 11:43:17;;;;;;;37.03;18.52;;;;;;;2.93;85.80;99188.22;5053550;28;20448;-88
2022/01/27 11:45:48;;;;;;;35.63;17.55;;;;;;;2.90;86.12;99191.25;5046235;28;20038;-89
2022/01/27 11:48:16;;;;;;;35.85;18.75;;;;;;;2.94;86.33;99189.84;5049504;28;20070;-89
2022/01/27 11:50:52;;;;;;;36.00;17.30;;;;;;;2.84;86.29;99165.63;5053050;28;20033;-89
2022/01/27 11:53:28;;;;;;;38.15;17.40;;;;;;;2.94;86.39;99184.59;5048420;28;20485;-89
2022/01/27 11:55:54;;;;;;;33.33;15.93;;;;;;;2.96;86.17;99187.03;5048846;28;20026;-89
2022/01/27 11:58:23;;;;;;;31.35;16.05;;;;;;;2.93;86.39;99174.22;5028110;28;20036;-89
2022/01/27 12:01:11;;;;;;;30.67;15.20;;;;;;;2.96;86.28;99169.38;5033309;28;20036;-90
2022/01/27 12:03:38;;;;;;;33.60;14.82;;;;;;;2.99;86.10;99176.09;5046812;28;20039;-89
2022/01/27 12:06:17;;;;;;;35.45;15.88;;;;;;;2.99;86.71;99168.97;5056335;28;20033;-89
2022/01/27 12:08:43;;;;;;;28.27;14.82;;;;;;;2.85;86.41;99151.47;5042701;28;20116;-89
2022/01/27 12:11:11;;;;;;;26.65;14.55;;;;;;;3.02;86.42;99173.06;5024344;28;20135;-89
2022/01/27 12:13:47;;;;;;;24.90;12.48;;;;;;;3.03;86.36;99169.44;5022666;28;20021;-89
2022/01/27 12:19:02;;;;;;;21.95;11.75;;;;;;;2.99;86.51;99171.63;5023756;28;20036;-89
2022/01/27 12:21:32;;;;;;;18.90;10.68;;;;;;;3.03;86.69;99170.25;5019783;28;20061;-89
2022/01/27 12:24:12;;;;;;;23.20;11.75;;;;;;;3.02;86.58;99160.69;5026653;28;20115;-89
2022/01/27 12:26:59;;;;;;;24.50;11.32;;;;;;;3.02;86.69;99163.34;5025302;28;20038;-88